createdAt,value
2022-09-28T00:00:42.367Z,4.57
2022-09-28T00:05:50.162Z,4.87
2022-09-28T00:10:58.836Z,4.27
2022-09-28T00:16:09.075Z,4.60
2022-09-28T00:21:18.865Z,4.97
2022-09-28T00:26:27.075Z,4.47
2022-09-28T00:31:35.592Z,3.60
2022-09-28T00:36:45.938Z,4.40
2022-09-28T00:41:53.830Z,4.60
2022-09-28T00:47:07.152Z,4.10
2022-09-28T00:52:16.940Z,4.13
2022-09-28T00:57:24.760Z,4.97
2022-09-28T01:02:32.646Z,4.80
2022-09-28T01:07:41.253Z,4.57
2022-09-28T01:12:49.977Z,4.90
2022-09-28T01:18:00.927Z,5.10
2022-09-28T01:23:14.658Z,5.13
2022-09-28T01:28:25.952Z,4.63
2022-09-28T01:33:36.871Z,4.90
2022-09-28T01:38:47.760Z,4.27
2022-09-28T01:43:57.798Z,5.07
2022-09-28T01:49:09.202Z,4.50
2022-09-28T01:54:20.021Z,4.83
2022-09-28T01:59:29.647Z,4.10
2022-09-28T02:04:40.736Z,4.57
2022-09-28T02:09:57.465Z,4.63
2022-09-28T02:15:08.944Z,4.90
2022-09-28T02:20:17.466Z,5.13
2022-09-28T02:25:28.380Z,5.10
2022-09-28T02:30:38.017Z,5.27
2022-09-28T02:35:45.880Z,4.93
2022-09-28T02:40:57.493Z,4.90
2022-09-28T02:46:08.452Z,4.37
2022-09-28T02:51:19.495Z,4.60
2022-09-28T02:56:30.473Z,5.27
2022-09-28T03:01:41.072Z,4.20
2022-09-28T03:06:54.782Z,5.03
2022-09-28T03:12:04.704Z,5.90
2022-09-28T03:17:12.501Z,7.30
2022-09-28T03:22:20.305Z,6.17
2022-09-28T03:27:28.071Z,5.00
2022-09-28T03:32:35.917Z,4.77
2022-09-28T03:37:43.673Z,5.47
2022-09-28T03:42:51.451Z,5.47
2022-09-28T03:48:00.432Z,5.90
2022-09-28T03:53:08.152Z,6.53
2022-09-28T03:58:16.027Z,6.70
2022-09-28T04:03:23.855Z,6.53
2022-09-28T04:08:32.638Z,6.43
2022-09-28T04:13:40.415Z,7.17
2022-09-28T04:18:48.755Z,7.03
2022-09-28T04:23:58.307Z,6.63
2022-09-28T04:29:07.693Z,6.70
2022-09-28T04:34:17.780Z,8.00
2022-09-28T04:39:25.545Z,7.30
2022-09-28T04:44:33.419Z,7.23
2022-09-28T04:49:41.917Z,7.97
2022-09-28T04:54:50.267Z,7.93
2022-09-28T04:59:58.070Z,7.73
2022-09-28T05:05:06.085Z,7.93
2022-09-28T05:10:13.903Z,7.77
2022-09-28T05:15:23.370Z,8.67
2022-09-28T05:20:34.427Z,8.20
2022-09-28T05:25:46.704Z,9.17
2022-09-28T05:30:54.542Z,8.73
2022-09-28T05:36:02.481Z,8.20
2022-09-28T05:41:10.351Z,7.17
2022-09-28T05:46:18.846Z,6.73
2022-09-28T05:51:27.703Z,6.90
2022-09-28T05:56:35.537Z,6.13
2022-09-28T06:01:43.411Z,6.20
2022-09-28T06:06:51.278Z,5.73
2022-09-28T06:12:00.429Z,5.90
2022-09-28T06:17:08.273Z,6.13
2022-09-28T06:22:16.057Z,5.97
2022-09-28T06:27:23.895Z,5.50
2022-09-28T06:32:31.770Z,5.80
2022-09-28T06:37:40.109Z,6.67
2022-09-28T06:42:51.814Z,4.70
2022-09-28T06:48:01.397Z,4.57
2022-09-28T06:53:10.283Z,4.47
2022-09-28T06:58:19.997Z,4.93
2022-09-28T07:03:28.014Z,4.90
2022-09-28T07:08:35.927Z,4.97
2022-09-28T07:13:50.769Z,5.23
2022-09-28T07:18:53.454Z,4.73
2022-09-28T07:24:01.674Z,4.17
2022-09-28T07:29:10.518Z,3.63
2022-09-28T07:34:18.919Z,3.17
2022-09-28T07:39:26.879Z,2.60
2022-09-28T07:44:34.831Z,1.87
2022-09-28T07:49:42.584Z,1.63
2022-09-28T07:54:51.980Z,1.97
2022-09-28T08:00:00.932Z,2.33
2022-09-28T08:05:11.200Z,1.80
2022-09-28T08:10:19.630Z,1.10
2022-09-28T08:15:27.734Z,1.23
2022-09-28T08:20:37.625Z,1.20
2022-09-28T08:25:49.199Z,1.40
2022-09-28T08:30:59.260Z,1.50
2022-09-28T08:36:07.662Z,1.17
2022-09-28T08:41:18.670Z,1.13
2022-09-28T08:46:28.555Z,1.30
2022-09-28T08:51:40.675Z,1.10
2022-09-28T08:56:52.081Z,1.47
2022-09-28T09:02:03.747Z,1.40
2022-09-28T09:07:18.549Z,1.50
2022-09-28T09:12:29.485Z,1.07
2022-09-28T09:17:41.470Z,1.23
2022-09-28T09:22:52.427Z,1.10
2022-09-28T09:28:03.336Z,0.93
2022-09-28T09:33:17.247Z,0.90
2022-09-28T09:38:28.807Z,0.60
2022-09-28T09:43:40.735Z,0.80
2022-09-28T09:48:52.443Z,0.60
2022-09-28T09:54:03.745Z,0.50
2022-09-28T09:59:14.499Z,0.60
2022-09-28T10:04:25.084Z,0.70
2022-09-28T10:09:36.358Z,0.70
2022-09-28T10:14:44.507Z,0.67
2022-09-28T10:19:57.307Z,0.50
2022-09-28T10:25:05.945Z,0.40
2022-09-28T10:30:17.146Z,0.57
2022-09-28T10:35:27.420Z,0.30
2022-09-28T10:40:38.406Z,0.53
2022-09-28T10:45:46.306Z,0.30
2022-09-28T10:50:57.806Z,0.40
2022-09-28T10:56:09.003Z,0.50
2022-09-28T11:01:19.581Z,0.43
2022-09-28T11:06:29.830Z,0.60
2022-09-28T11:11:41.893Z,0.40
2022-09-28T11:16:50.247Z,0.50
2022-09-28T11:21:58.471Z,0.50
2022-09-28T11:27:06.316Z,0.50
2022-09-28T11:32:16.202Z,0.60
2022-09-28T11:37:28.154Z,0.60
2022-09-28T11:42:41.427Z,0.50
2022-09-28T11:47:52.639Z,1.10
2022-09-28T11:53:05.427Z,1.20
2022-09-28T11:58:16.466Z,1.13
2022-09-28T12:03:27.358Z,1.00
2022-09-28T12:08:37.992Z,1.00
2022-09-28T12:13:53.068Z,0.93
2022-09-28T12:19:06.665Z,1.07
2022-09-28T12:29:30.026Z,0.53
2022-09-28T12:34:37.678Z,0.30
2022-09-28T12:39:57.528Z,0.40
2022-09-28T12:45:03.720Z,0.40
2022-09-28T12:55:28.765Z,0.30
2022-09-28T13:00:40.302Z,0.60
2022-09-28T13:05:51.615Z,0.47
2022-09-28T13:11:07.588Z,0.70
2022-09-28T13:16:16.927Z,1.87
2022-09-28T13:21:28.485Z,1.60
2022-09-28T13:26:38.635Z,1.50
2022-09-28T13:31:51.168Z,1.63
2022-09-28T13:37:02.207Z,1.40
2022-09-28T13:42:10.573Z,1.90
2022-09-28T13:52:35.780Z,1.27
2022-09-28T14:03:11.858Z,1.50
2022-09-28T14:08:23.053Z,1.60
2022-09-28T14:13:34.539Z,1.70
2022-09-28T14:18:44.060Z,1.90
2022-09-28T14:23:59.111Z,2.47
2022-09-28T14:29:10.149Z,2.27
2022-09-28T14:34:22.172Z,2.00
2022-09-28T14:39:34.554Z,2.73
2022-09-28T14:44:45.952Z,2.83
2022-09-28T14:49:57.316Z,3.50
2022-09-28T14:55:06.658Z,3.33
2022-09-28T15:00:16.867Z,2.50
2022-09-28T15:05:27.085Z,1.57
2022-09-28T15:10:36.759Z,1.50
2022-09-28T15:15:44.578Z,1.70
2022-09-28T15:20:52.384Z,1.60
2022-09-28T15:26:00.171Z,1.30
2022-09-28T15:31:08.511Z,0.93
2022-09-28T15:36:19.779Z,2.10
2022-09-28T15:41:28.140Z,1.67
2022-09-28T15:46:37.761Z,2.60
2022-09-28T15:51:48.937Z,3.20
2022-09-28T15:56:59.848Z,3.00
2022-09-28T16:02:12.150Z,3.20
2022-09-28T16:07:23.385Z,2.87
2022-09-28T16:12:36.364Z,2.40
2022-09-28T16:17:44.179Z,3.27
2022-09-28T16:22:53.614Z,4.23
2022-09-28T16:28:01.555Z,4.57
2022-09-28T16:33:14.152Z,3.50
2022-09-28T16:38:22.054Z,16.80
2022-09-28T16:43:31.746Z,11.40
2022-09-28T16:48:41.893Z,6.57
2022-09-28T16:53:51.294Z,6.50
2022-09-28T16:58:59.073Z,6.73
2022-09-28T17:04:07.753Z,5.53
2022-09-28T17:09:17.502Z,6.53
2022-09-28T17:14:25.771Z,9.13
2022-09-28T17:19:33.575Z,7.63
2022-09-28T17:24:41.484Z,5.90
2022-09-28T17:29:49.281Z,7.03
2022-09-28T17:35:23.813Z,7.30
2022-09-28T17:40:15.119Z,12.80
2022-09-28T17:45:28.259Z,9.23
2022-09-28T17:50:36.722Z,7.17
2022-09-28T17:55:44.707Z,5.30
2022-09-28T18:00:53.075Z,4.93
2022-09-28T18:06:05.012Z,5.23
2022-09-28T18:11:13.398Z,5.20
2022-09-28T18:16:22.915Z,5.63
2022-09-28T18:21:33.112Z,5.73
2022-09-28T18:26:41.041Z,11.37
2022-09-28T18:31:49.137Z,15.57
2022-09-28T18:36:58.201Z,16.97
2022-09-28T18:42:06.163Z,15.27
2022-09-28T18:47:15.426Z,7.33
2022-09-28T18:52:25.150Z,7.20
2022-09-28T18:57:40.363Z,7.17
2022-09-28T19:02:49.157Z,6.53
2022-09-28T19:07:57.594Z,6.30
2022-09-28T19:13:05.516Z,7.77
2022-09-28T19:18:13.644Z,6.37
2022-09-28T19:23:24.514Z,6.73
2022-09-28T19:28:34.421Z,7.97
2022-09-28T19:33:42.404Z,7.67
2022-09-28T19:38:50.353Z,8.83
2022-09-28T19:44:04.016Z,8.37
2022-09-28T19:49:13.804Z,7.30
2022-09-28T19:54:23.179Z,8.40
2022-09-28T19:59:31.002Z,9.83
2022-09-28T20:04:38.934Z,9.73
2022-09-28T20:09:48.206Z,11.53
2022-09-28T20:14:56.144Z,14.57
2022-09-28T20:20:04.308Z,13.33
2022-09-28T20:25:14.131Z,11.77
2022-09-28T20:30:24.477Z,14.43
2022-09-28T20:35:33.329Z,13.13
2022-09-28T20:40:42.668Z,11.40
2022-09-28T20:45:51.329Z,10.17
2022-09-28T20:51:03.268Z,9.70
2022-09-28T20:56:14.585Z,10.10
2022-09-28T21:01:26.759Z,9.70
2022-09-28T21:06:36.067Z,8.57
2022-09-28T21:11:44.516Z,7.97
2022-09-28T21:16:52.234Z,7.40
2022-09-28T21:22:00.084Z,6.67
2022-09-28T21:27:07.824Z,7.30
2022-09-28T21:32:15.777Z,7.37
2022-09-28T21:37:24.853Z,7.10
2022-09-28T21:42:32.600Z,9.27
2022-09-28T21:47:41.602Z,11.83
2022-09-28T21:52:50.817Z,10.47
2022-09-28T21:57:58.567Z,8.83
2022-09-28T22:03:07.788Z,10.33
2022-09-28T22:08:15.652Z,9.70
2022-09-28T22:13:24.139Z,10.43
2022-09-28T22:18:32.204Z,11.63
2022-09-28T22:23:40.328Z,10.53
2022-09-28T22:28:50.054Z,12.00
2022-09-28T22:33:59.438Z,11.10
2022-09-28T22:39:07.300Z,11.43
2022-09-28T22:44:15.153Z,12.07
2022-09-28T22:49:22.959Z,10.90
2022-09-28T22:54:30.944Z,10.33
2022-09-28T22:59:38.866Z,10.50
2022-09-28T23:04:46.634Z,12.10
2022-09-28T23:09:54.594Z,9.03
2022-09-28T23:15:03.247Z,8.60
2022-09-28T23:20:11.099Z,7.83
2022-09-28T23:25:19.900Z,6.97
2022-09-28T23:30:27.671Z,6.47
2022-09-28T23:35:35.598Z,6.17
2022-09-28T23:40:44.537Z,7.57
2022-09-28T23:45:52.393Z,6.50
2022-09-28T23:51:00.115Z,6.63
2022-09-28T23:56:08.042Z,8.30
